KUIN/UIN METAR and TAF weather

Enter ICAO airport designator
Station Type Date Time Source
KUIN METAR 2020/04/06 14:54 UTC NOAA

KUIN 061454Z AUTO 16011KT 8SM SCT033 BKN041 OVC055 13/09 A3004 RMK AO2 SLP172 60001 T01280094 56009


Station Type Date Time Source
KUIN Decoded METAR 2020/04/06 14:54 UTC NOAA

QUINCY MUNI. BALDWIN FIELD, IL, United States (KUIN) 39-56N 091-12W
Apr 06, 2020 - 10:54 AM EDT / 2020.04.06 1454 UTC
Wind: from the SSE (160 degrees) at 13 MPH (11 KT):0
Visibility: 8 mile(s):0
Sky conditions: overcast
Temperature: 55.0 F (12.8 C)
Dew Point: 48.9 F (9.4 C)
Relative Humidity: 79%
Pressure (altimeter): 30.04 in. Hg (1017 hPa)
Pressure tendency: 0.03 inches (0.9 hPa) lower than three hours ago
ob: KUIN 061454Z AUTO 16011KT 8SM SCT033 BKN041 OVC055 13/09 A3004 RMK AO2 SLP172 60001 T01280094 56009
cycle: 15

Station Type Date Time Source
KUIN TAF 2020/04/06 14:58 UTC NOAA

TAF
AMD KUIN 061356Z 0614/0712 15010KT 5SM BR VCSH FEW025 OVC035
FM061700 18011G17KT P6SM OVC025
FM062100 20012G18KT P6SM BKN040
FM071000 22009KT P6SM BKN025

Example: see airport list